createdAt,value
2023-03-17T00:00:48.353Z,45.65
2023-03-17T00:01:47.548Z,50.36
2023-03-17T00:02:47.550Z,44.87
2023-03-17T00:03:47.566Z,45.35
2023-03-17T00:04:47.534Z,45.89
2023-03-17T00:05:47.521Z,45.18
2023-03-17T00:06:47.520Z,45.18
2023-03-17T00:07:47.511Z,51.29
2023-03-17T00:08:47.506Z,45.44
2023-03-17T00:09:47.509Z,51.78
2023-03-17T00:10:47.471Z,57.46
2023-03-17T00:11:47.446Z,49.56
2023-03-17T00:12:47.466Z,51.69
2023-03-17T00:13:47.476Z,44.54
2023-03-17T00:14:47.448Z,47.28
2023-03-17T00:15:47.507Z,49.10
2023-03-17T00:16:47.431Z,51.52
2023-03-17T00:17:47.800Z,55.81
2023-03-17T00:18:47.399Z,50.42
2023-03-17T00:19:47.416Z,48.27
2023-03-17T00:20:47.420Z,47.18
2023-03-17T00:21:47.372Z,45.76
2023-03-17T00:22:47.389Z,48.95
2023-03-17T00:23:47.382Z,45.10
2023-03-17T00:24:47.361Z,51.79
2023-03-17T00:25:47.352Z,54.80
2023-03-17T00:26:47.348Z,45.76
2023-03-17T00:27:47.340Z,44.50
2023-03-17T00:28:47.322Z,46.46
2023-03-17T00:29:47.326Z,45.78
2023-03-17T00:30:47.316Z,45.23
2023-03-17T00:31:47.296Z,55.37
2023-03-17T00:32:47.268Z,48.09
2023-03-17T00:33:47.294Z,54.31
2023-03-17T00:34:47.298Z,45.43
2023-03-17T00:35:47.307Z,49.81
2023-03-17T00:36:47.265Z,44.53
2023-03-17T00:37:47.309Z,45.48
2023-03-17T00:38:47.289Z,54.28
2023-03-17T00:39:47.257Z,49.30
2023-03-17T00:40:47.221Z,44.51
2023-03-17T00:41:47.828Z,50.98
2023-03-17T00:42:47.204Z,55.14
2023-03-17T00:43:47.216Z,44.29
2023-03-17T00:44:47.192Z,46.17
2023-03-17T00:45:47.188Z,52.11
2023-03-17T00:46:47.259Z,46.88
2023-03-17T00:47:47.196Z,44.74
2023-03-17T00:48:47.197Z,50.10
2023-03-17T00:49:47.151Z,45.48
2023-03-17T00:50:47.179Z,49.75
2023-03-17T00:51:47.154Z,44.58
2023-03-17T00:52:47.150Z,45.51
2023-03-17T00:53:47.173Z,45.07
2023-03-17T00:54:47.160Z,50.00
2023-03-17T00:55:47.112Z,52.09
2023-03-17T00:56:47.114Z,53.94
2023-03-17T00:57:47.119Z,56.68
2023-03-17T00:58:47.085Z,57.45
2023-03-17T00:59:47.106Z,49.96
2023-03-17T01:00:47.088Z,51.04
2023-03-17T01:01:47.106Z,46.04
2023-03-17T01:02:47.097Z,45.57
2023-03-17T01:03:47.074Z,46.13
2023-03-17T01:04:52.885Z,46.58
2023-03-17T01:05:49.049Z,47.77
2023-03-17T01:06:47.061Z,45.26
2023-03-17T01:07:48.043Z,54.22
2023-03-17T01:08:47.071Z,44.68
2023-03-17T01:09:47.035Z,51.47
2023-03-17T01:11:19.090Z,45.36
2023-03-17T01:11:47.151Z,58.27
2023-03-17T01:12:47.004Z,50.59
2023-03-17T01:13:47.010Z,55.14
2023-03-17T01:14:47.008Z,57.22
2023-03-17T01:15:46.982Z,50.55
2023-03-17T01:16:46.969Z,52.82
2023-03-17T01:17:46.953Z,53.69
2023-03-17T01:18:47.015Z,52.04
2023-03-17T01:19:46.970Z,46.96
2023-03-17T01:20:46.950Z,46.56
2023-03-17T01:21:46.943Z,51.20
2023-03-17T01:22:46.903Z,50.28
2023-03-17T01:23:46.943Z,56.18
2023-03-17T01:24:46.943Z,51.98
2023-03-17T01:25:46.906Z,57.18
2023-03-17T01:26:46.895Z,54.85
2023-03-17T01:27:46.895Z,50.94
2023-03-17T01:28:46.868Z,51.96
2023-03-17T01:29:46.873Z,54.12
2023-03-17T01:30:46.907Z,46.72
2023-03-17T01:31:46.897Z,50.78
2023-03-17T01:32:46.849Z,53.35
2023-03-17T01:33:46.836Z,54.96
2023-03-17T01:34:46.860Z,45.17
2023-03-17T01:35:46.888Z,54.94
2023-03-17T01:36:46.881Z,45.90
2023-03-17T01:37:46.795Z,45.12
2023-03-17T01:38:46.818Z,43.88
2023-03-17T01:39:46.786Z,43.63
2023-03-17T01:40:46.788Z,51.06
2023-03-17T01:41:46.820Z,50.89
2023-03-17T01:42:46.805Z,47.06
2023-03-17T01:43:46.737Z,48.46
2023-03-17T01:44:46.742Z,51.24
2023-03-17T01:45:46.777Z,45.79
2023-03-17T01:46:46.796Z,46.26
2023-03-17T01:47:46.781Z,46.66
2023-03-17T01:48:46.733Z,47.02
2023-03-17T01:49:46.711Z,50.94
2023-03-17T01:50:46.751Z,44.88
2023-03-17T01:51:46.717Z,50.37
2023-03-17T01:52:46.704Z,44.36
2023-03-17T01:53:46.674Z,44.86
2023-03-17T01:54:46.718Z,45.34
2023-03-17T01:55:46.658Z,45.06
2023-03-17T01:56:47.689Z,51.69
2023-03-17T01:57:46.678Z,52.60
2023-03-17T01:58:46.641Z,54.65
2023-03-17T01:59:46.688Z,48.43
2023-03-17T02:00:46.716Z,51.03
2023-03-17T02:01:46.636Z,46.60
2023-03-17T02:02:46.662Z,55.70
2023-03-17T02:03:46.637Z,46.97
2023-03-17T02:04:46.612Z,44.65
2023-03-17T02:05:46.601Z,44.68
2023-03-17T02:06:57.387Z,50.70
2023-03-17T02:07:48.647Z,51.47
2023-03-17T02:08:46.577Z,46.05
2023-03-17T02:09:46.587Z,45.40
2023-03-17T02:10:46.569Z,46.72
2023-03-17T02:11:46.580Z,48.56
2023-03-17T02:12:46.562Z,56.00
2023-03-17T02:13:46.533Z,51.55
2023-03-17T02:14:46.518Z,51.82
2023-03-17T02:15:46.541Z,45.64
2023-03-17T02:16:46.577Z,47.81
2023-03-17T02:17:46.516Z,49.84
2023-03-17T02:18:46.521Z,56.19
2023-03-17T02:19:47.350Z,51.71
2023-03-17T02:20:47.524Z,48.93
2023-03-17T02:21:46.491Z,57.15
2023-03-17T02:22:46.469Z,52.22
2023-03-17T02:23:46.475Z,45.83
2023-03-17T02:24:46.441Z,44.43
2023-03-17T02:25:46.470Z,53.28
2023-03-17T02:26:46.442Z,46.17
2023-03-17T02:27:46.460Z,45.23
2023-03-17T02:28:46.436Z,50.84
2023-03-17T02:29:46.525Z,44.80
2023-03-17T02:30:46.454Z,45.00
2023-03-17T02:31:46.404Z,46.22
2023-03-17T02:32:46.406Z,51.18
2023-03-17T02:33:46.406Z,46.13
2023-03-17T02:34:46.411Z,49.98
2023-03-17T02:35:46.402Z,51.42
2023-03-17T02:36:46.400Z,55.77
2023-03-17T02:37:46.367Z,45.30
2023-03-17T02:38:46.378Z,45.65
2023-03-17T02:39:46.341Z,50.42
2023-03-17T02:40:46.373Z,49.56
2023-03-17T02:41:46.345Z,50.41
2023-03-17T02:42:46.311Z,56.02
2023-03-17T02:43:46.316Z,53.12
2023-03-17T02:44:46.286Z,55.29
2023-03-17T02:45:46.392Z,45.69
2023-03-17T02:46:46.300Z,50.95
2023-03-17T02:47:46.283Z,46.73
2023-03-17T02:48:46.276Z,47.63
2023-03-17T02:49:46.259Z,51.06
2023-03-17T02:50:46.274Z,45.93
2023-03-17T02:51:46.261Z,47.21
2023-03-17T02:52:46.247Z,47.12
2023-03-17T02:53:46.242Z,52.00
2023-03-17T02:54:46.295Z,52.37
2023-03-17T02:55:46.309Z,47.45
2023-03-17T02:56:46.253Z,47.08
2023-03-17T02:57:46.210Z,51.81
2023-03-17T02:58:46.213Z,47.17
2023-03-17T02:59:46.185Z,46.57
2023-03-17T03:00:46.230Z,51.04
2023-03-17T03:01:46.224Z,46.20
2023-03-17T03:02:46.209Z,46.44
2023-03-17T03:03:46.168Z,51.25
2023-03-17T03:04:46.155Z,55.19
2023-03-17T03:05:46.164Z,46.22
2023-03-17T03:06:46.161Z,47.31
2023-03-17T03:07:46.185Z,47.94
2023-03-17T03:08:46.118Z,51.37
2023-03-17T03:09:46.114Z,47.13
2023-03-17T03:10:46.121Z,44.98
2023-03-17T03:11:46.133Z,45.67
2023-03-17T03:12:46.103Z,45.89
2023-03-17T03:13:46.072Z,46.18
2023-03-17T03:14:46.098Z,52.14
2023-03-17T03:15:46.171Z,47.52
2023-03-17T03:16:46.061Z,50.85
2023-03-17T03:17:46.080Z,52.00
2023-03-17T03:18:46.046Z,46.67
2023-03-17T03:19:46.041Z,49.20
2023-03-17T03:20:46.047Z,46.06
2023-03-17T03:21:46.072Z,52.81
2023-03-17T03:22:46.070Z,45.42
2023-03-17T03:23:46.008Z,47.30
2023-03-17T03:24:46.014Z,53.11
2023-03-17T03:25:46.017Z,56.08
2023-03-17T03:26:46.013Z,53.59
2023-03-17T03:27:46.006Z,52.30
2023-03-17T03:28:45.995Z,50.76
2023-03-17T03:29:45.953Z,46.88
2023-03-17T03:30:47.019Z,51.42
2023-03-17T03:31:45.963Z,59.17
2023-03-17T03:32:45.992Z,61.78
2023-03-17T03:33:45.964Z,48.77
2023-03-17T03:34:45.962Z,47.53
2023-03-17T03:35:45.940Z,56.46
2023-03-17T03:36:45.974Z,53.30
2023-03-17T03:37:45.955Z,54.07
2023-03-17T03:38:46.005Z,47.63
2023-03-17T03:39:45.907Z,48.04
2023-03-17T03:40:45.888Z,45.60
2023-03-17T03:41:46.844Z,50.87
2023-03-17T03:42:45.915Z,46.59
2023-03-17T03:43:45.865Z,52.25
2023-03-17T03:44:45.890Z,47.99
2023-03-17T03:45:45.907Z,47.39
2023-03-17T03:46:45.930Z,59.06
2023-03-17T04:03:57.861Z,57.70
2023-03-17T04:04:57.901Z,46.80
2023-03-17T04:05:57.869Z,56.07
2023-03-17T04:06:57.921Z,46.03
2023-03-17T04:07:59.053Z,62.39
2023-03-17T04:09:31.560Z,57.09
2023-03-17T04:09:59.029Z,55.42
2023-03-17T04:10:58.989Z,57.12
2023-03-17T04:11:59.616Z,57.83
2023-03-17T04:12:58.979Z,56.68
2023-03-17T04:13:59.690Z,51.92
2023-03-17T04:14:58.943Z,56.58
2023-03-17T04:15:58.955Z,58.68
2023-03-17T04:16:59.631Z,58.64
2023-03-17T04:17:58.922Z,59.98
2023-03-17T04:18:58.947Z,62.59
2023-03-17T04:19:58.923Z,55.98
2023-03-17T04:20:58.936Z,57.14
2023-03-17T04:21:58.930Z,62.52
2023-03-17T04:22:58.888Z,61.83
2023-03-17T04:23:58.876Z,55.99
2023-03-17T04:24:58.862Z,59.86
2023-03-17T04:25:59.615Z,62.68
2023-03-17T04:26:58.840Z,59.53
2023-03-17T04:27:58.834Z,64.38
2023-03-17T04:28:58.892Z,65.45
2023-03-17T04:29:58.827Z,62.84
2023-03-17T04:30:58.842Z,65.40
2023-03-17T04:31:58.844Z,54.02
2023-03-17T04:32:58.944Z,62.81
2023-03-17T04:33:58.869Z,62.72
2023-03-17T04:34:58.797Z,58.66
2023-03-17T04:35:58.820Z,65.90
2023-03-17T04:36:58.823Z,61.92
2023-03-17T04:37:58.772Z,63.32
2023-03-17T04:38:58.749Z,66.57
2023-03-17T04:39:58.784Z,63.12
2023-03-17T04:40:58.744Z,59.71
2023-03-17T04:41:58.748Z,56.73
2023-03-17T04:42:58.734Z,58.69
2023-03-17T04:43:58.790Z,67.61
2023-03-17T04:44:58.736Z,63.34
2023-03-17T04:45:58.778Z,65.13
2023-03-17T04:46:58.692Z,69.43
2023-03-17T04:47:58.704Z,60.79
2023-03-17T04:48:58.673Z,63.81
2023-03-17T04:49:58.753Z,59.29
2023-03-17T04:50:58.669Z,58.34
2023-03-17T04:51:58.662Z,64.33
2023-03-17T04:52:58.660Z,58.41
2023-03-17T04:53:58.645Z,61.49
2023-03-17T04:54:58.637Z,58.98
2023-03-17T04:55:58.649Z,61.29
2023-03-17T04:56:58.616Z,66.81
2023-03-17T04:57:58.625Z,54.61
2023-03-17T04:58:58.606Z,65.77
2023-03-17T04:59:58.594Z,64.59
2023-03-17T05:00:59.339Z,60.70
2023-03-17T05:01:58.666Z,59.70
2023-03-17T05:02:58.582Z,53.59
2023-03-17T05:03:58.556Z,66.52
2023-03-17T05:04:58.565Z,63.34
2023-03-17T05:05:58.570Z,64.97
2023-03-17T05:06:58.675Z,54.48
2023-03-17T05:07:58.579Z,67.53
2023-03-17T05:08:58.522Z,61.60
2023-03-17T05:09:58.505Z,64.54
2023-03-17T05:10:58.542Z,62.34
2023-03-17T05:11:59.147Z,62.89
2023-03-17T05:12:58.516Z,64.70
2023-03-17T05:13:58.993Z,62.73
2023-03-17T05:14:58.505Z,71.09
2023-03-17T05:15:58.502Z,61.97
2023-03-17T05:16:58.466Z,61.17
2023-03-17T05:17:58.478Z,64.62
2023-03-17T05:18:58.447Z,68.66
2023-03-17T05:19:58.457Z,67.76
2023-03-17T05:20:58.431Z,59.96
2023-03-17T05:21:58.442Z,61.78
2023-03-17T05:22:58.499Z,60.13
2023-03-17T05:23:58.442Z,60.10
2023-03-17T05:24:58.389Z,71.50
2023-03-17T05:25:58.391Z,66.51
2023-03-17T05:26:58.429Z,65.42
2023-03-17T05:27:58.488Z,67.89
2023-03-17T05:28:58.426Z,66.78
2023-03-17T05:29:58.358Z,68.60
2023-03-17T05:30:58.400Z,63.87
2023-03-17T05:31:58.367Z,71.67
2023-03-17T05:32:58.373Z,63.36
2023-03-17T05:33:58.401Z,63.39
2023-03-17T05:34:58.325Z,66.65
2023-03-17T05:35:58.332Z,55.91
2023-03-17T05:36:58.338Z,71.22
2023-03-17T05:37:59.212Z,67.33
2023-03-17T05:38:58.300Z,62.20
2023-03-17T05:39:58.298Z,69.98
2023-03-17T05:40:58.289Z,66.74
2023-03-17T05:41:58.308Z,67.84
2023-03-17T05:42:58.303Z,69.07
2023-03-17T05:43:59.146Z,69.52
2023-03-17T05:45:00.491Z,68.60
2023-03-17T05:45:58.356Z,64.96
2023-03-17T05:46:59.210Z,72.00
2023-03-17T05:47:58.245Z,67.40
2023-03-17T05:48:58.280Z,61.97
2023-03-17T05:49:59.187Z,71.86
2023-03-17T05:50:58.269Z,61.50
2023-03-17T05:51:58.245Z,64.54
2023-03-17T05:52:58.254Z,64.75
2023-03-17T05:53:58.432Z,64.65
2023-03-17T05:54:58.967Z,68.54
2023-03-17T05:55:58.222Z,67.22
2023-03-17T05:56:58.225Z,67.29
2023-03-17T05:57:58.229Z,63.99
2023-03-17T05:58:58.213Z,70.01
2023-03-17T05:59:58.201Z,68.77
2023-03-17T06:00:58.197Z,68.99
2023-03-17T06:01:58.163Z,68.00
2023-03-17T06:02:59.138Z,69.27
2023-03-17T06:03:58.211Z,65.31
2023-03-17T06:04:58.217Z,68.74
2023-03-17T06:05:58.130Z,62.56
2023-03-17T06:06:58.128Z,66.40
2023-03-17T06:07:58.701Z,70.56
2023-03-17T06:08:58.417Z,72.15
2023-03-17T06:09:58.234Z,66.35
2023-03-17T06:10:58.117Z,63.75
2023-03-17T06:11:58.130Z,71.27
2023-03-17T06:12:58.177Z,72.57
2023-03-17T06:13:59.010Z,64.78
2023-03-17T06:14:58.086Z,68.23
2023-03-17T06:15:58.280Z,74.03
2023-03-17T06:16:58.055Z,70.95
2023-03-17T06:17:58.080Z,68.60
2023-03-17T06:18:58.691Z,71.51
2023-03-17T06:19:58.061Z,67.74
2023-03-17T06:20:58.095Z,72.56
2023-03-17T06:21:58.035Z,67.55
2023-03-17T06:23:04.585Z,68.28
2023-03-17T06:24:00.019Z,71.30
2023-03-17T06:24:58.045Z,71.39
2023-03-17T06:25:58.986Z,69.93
2023-03-17T06:26:57.989Z,67.56
2023-03-17T06:27:57.997Z,72.52
2023-03-17T06:28:57.962Z,70.24
2023-03-17T06:29:58.040Z,72.85
2023-03-17T06:30:57.960Z,71.02
2023-03-17T06:32:09.234Z,65.77
2023-03-17T06:32:59.959Z,71.33
2023-03-17T06:33:57.961Z,68.34
2023-03-17T06:34:57.914Z,73.72
2023-03-17T06:35:57.936Z,68.64
2023-03-17T06:36:57.888Z,75.52
2023-03-17T06:37:57.943Z,68.64
2023-03-17T06:38:57.944Z,70.67
2023-03-17T06:39:57.902Z,70.97
2023-03-17T06:40:57.841Z,70.74
2023-03-17T06:41:57.873Z,67.85
2023-03-17T06:42:57.855Z,68.92
2023-03-17T06:43:57.868Z,70.76
2023-03-17T06:44:57.819Z,69.49
2023-03-17T06:45:57.816Z,70.83
2023-03-17T06:46:57.825Z,70.36
2023-03-17T06:47:57.816Z,71.94
2023-03-17T06:48:57.812Z,67.36
2023-03-17T06:49:57.826Z,69.48
2023-03-17T06:50:57.765Z,72.95
2023-03-17T06:51:57.769Z,69.92
2023-03-17T06:52:57.780Z,71.35
2023-03-17T06:53:57.772Z,63.95
2023-03-17T06:54:57.761Z,62.10
2023-03-17T06:55:57.779Z,71.83
2023-03-17T06:56:57.739Z,68.83
2023-03-17T06:57:57.768Z,70.74
2023-03-17T06:58:57.739Z,66.70
2023-03-17T06:59:57.734Z,65.63
2023-03-17T07:00:57.739Z,69.25
2023-03-17T07:01:57.802Z,60.65
2023-03-17T07:02:57.748Z,72.75
2023-03-17T07:03:57.732Z,63.70
2023-03-17T07:04:57.755Z,69.71
2023-03-17T07:05:58.648Z,67.00
2023-03-17T07:06:57.710Z,59.66
2023-03-17T07:07:57.656Z,67.56
2023-03-17T07:08:57.673Z,67.50
2023-03-17T07:09:57.658Z,71.79
2023-03-17T07:10:57.629Z,68.05
2023-03-17T07:11:57.633Z,67.25
2023-03-17T07:12:58.154Z,66.71
2023-03-17T07:13:57.667Z,58.29
2023-03-17T07:14:57.624Z,69.05
2023-03-17T07:16:00.427Z,69.59
2023-03-17T07:16:58.211Z,63.24
2023-03-17T07:17:57.578Z,65.73
2023-03-17T07:18:57.583Z,68.52
2023-03-17T07:19:57.648Z,63.45
2023-03-17T07:20:57.559Z,65.24
2023-03-17T07:21:57.548Z,65.84
2023-03-17T07:22:57.556Z,69.45
2023-03-17T07:23:57.560Z,65.32
2023-03-17T07:24:57.551Z,65.28
2023-03-17T07:25:57.513Z,68.13
2023-03-17T07:26:57.530Z,71.71
2023-03-17T07:27:57.531Z,68.00
2023-03-17T07:28:57.549Z,64.15
2023-03-17T07:29:57.505Z,70.52
2023-03-17T07:30:57.513Z,67.06
2023-03-17T07:31:57.505Z,66.70
2023-03-17T07:32:57.501Z,70.05
2023-03-17T07:33:57.493Z,64.75
2023-03-17T07:34:58.442Z,72.69
2023-03-17T07:35:57.521Z,69.63
2023-03-17T07:36:57.415Z,63.04
2023-03-17T07:37:57.567Z,62.78
2023-03-17T07:38:57.392Z,67.34
2023-03-17T07:39:57.481Z,68.36
2023-03-17T07:40:57.382Z,69.52
2023-03-17T07:41:57.433Z,66.07
2023-03-17T07:42:57.370Z,64.39
2023-03-17T07:43:57.394Z,68.35
2023-03-17T07:44:57.440Z,70.36
2023-03-17T07:45:57.400Z,67.49
2023-03-17T07:46:57.352Z,67.38
2023-03-17T07:47:57.365Z,64.21
2023-03-17T07:48:57.374Z,70.35
2023-03-17T07:49:57.338Z,61.91
2023-03-17T07:50:57.308Z,64.56
2023-03-17T07:51:57.295Z,64.46
2023-03-17T07:52:57.353Z,68.25
2023-03-17T07:53:58.193Z,63.66
2023-03-17T07:54:57.288Z,63.24
2023-03-17T07:55:57.308Z,61.69
2023-03-17T07:56:57.263Z,59.90
2023-03-17T07:57:57.330Z,63.31
2023-03-17T07:58:57.333Z,69.19
2023-03-17T07:59:57.288Z,62.62
2023-03-17T08:00:57.292Z,69.35
2023-03-17T08:01:57.369Z,60.45
2023-03-17T08:03:09.267Z,67.18
2023-03-17T08:03:59.259Z,66.22
2023-03-17T08:04:57.210Z,64.93
2023-03-17T08:05:57.328Z,68.06
2023-03-17T08:06:58.206Z,63.73
2023-03-17T08:07:57.228Z,71.11
2023-03-17T08:08:57.264Z,63.36
2023-03-17T08:09:57.158Z,67.40
2023-03-17T08:10:57.196Z,70.00
2023-03-17T08:11:57.164Z,63.03
2023-03-17T08:12:57.140Z,66.84
2023-03-17T08:13:57.203Z,63.94
2023-03-17T08:14:57.126Z,60.82
2023-03-17T08:15:57.184Z,59.82
2023-03-17T08:16:57.196Z,68.88
2023-03-17T08:17:57.124Z,64.17
2023-03-17T08:18:57.114Z,67.15
2023-03-17T08:19:57.176Z,61.57
2023-03-17T08:20:57.084Z,67.65
2023-03-17T08:21:57.193Z,62.08
2023-03-17T08:22:57.185Z,67.14
2023-03-17T08:23:57.130Z,64.47
2023-03-17T08:24:57.034Z,67.44
2023-03-17T08:25:57.100Z,67.89
2023-03-17T08:26:59.620Z,71.30
2023-03-17T08:27:57.180Z,66.60
2023-03-17T08:28:57.032Z,67.80
2023-03-17T08:29:57.047Z,59.85
2023-03-17T08:30:57.151Z,62.24
2023-03-17T08:31:57.111Z,64.55
2023-03-17T08:32:57.089Z,64.54
2023-03-17T08:33:57.021Z,64.44
2023-03-17T08:34:57.015Z,62.74
2023-03-17T08:35:57.011Z,62.80
2023-03-17T08:36:56.981Z,66.32
2023-03-17T08:37:56.933Z,66.71
2023-03-17T08:38:56.976Z,64.66
2023-03-17T08:39:57.001Z,66.68
2023-03-17T08:40:56.944Z,67.93
2023-03-17T08:41:56.907Z,65.63
2023-03-17T08:42:56.965Z,66.29
2023-03-17T08:43:56.986Z,68.17
2023-03-17T08:44:56.979Z,65.67
2023-03-17T08:45:56.929Z,66.78
2023-03-17T08:46:56.889Z,67.44
2023-03-17T08:47:57.000Z,65.46
2023-03-17T08:48:56.950Z,67.77
2023-03-17T08:49:56.927Z,64.69
2023-03-17T08:50:56.867Z,65.17
2023-03-17T08:51:56.920Z,62.86
2023-03-17T08:52:56.825Z,68.09
2023-03-17T08:53:56.833Z,63.04
2023-03-17T08:54:56.828Z,62.04
2023-03-17T08:55:56.848Z,66.18
2023-03-17T08:56:56.800Z,62.16
2023-03-17T08:57:56.855Z,69.10
2023-03-17T08:58:56.813Z,68.87
2023-03-17T08:59:56.817Z,67.40
2023-03-17T09:00:56.783Z,62.01
2023-03-17T09:01:56.777Z,64.24
2023-03-17T09:02:56.836Z,68.12
2023-03-17T09:03:56.796Z,71.38
2023-03-17T09:04:56.822Z,63.06
2023-03-17T09:05:56.757Z,64.23
2023-03-17T09:07:03.316Z,66.56
2023-03-17T09:07:58.765Z,59.82
2023-03-17T09:08:56.724Z,62.16
2023-03-17T09:09:56.713Z,62.60
2023-03-17T09:10:56.690Z,68.08
2023-03-17T09:11:56.749Z,66.01
2023-03-17T09:12:56.697Z,68.72
2023-03-17T09:13:57.294Z,58.06
2023-03-17T09:14:56.651Z,64.18
2023-03-17T09:15:56.690Z,67.28
2023-03-17T09:16:56.784Z,69.14
2023-03-17T09:17:56.686Z,60.99
2023-03-17T09:18:56.634Z,68.32
2023-03-17T09:19:56.624Z,54.03
2023-03-17T09:20:56.627Z,61.17
2023-03-17T09:21:56.585Z,63.87
2023-03-17T09:22:56.626Z,66.91
2023-03-17T09:23:56.610Z,66.76
2023-03-17T09:24:56.688Z,63.32
2023-03-17T09:25:57.199Z,62.13
2023-03-17T09:26:56.860Z,68.12
2023-03-17T09:27:56.911Z,63.32
2023-03-17T09:28:56.575Z,60.26
2023-03-17T09:29:56.512Z,59.01
2023-03-17T09:30:56.575Z,65.98
2023-03-17T09:31:56.602Z,65.14
2023-03-17T09:32:56.541Z,63.93
2023-03-17T09:33:56.608Z,62.51
2023-03-17T09:34:56.511Z,60.87
2023-03-17T09:35:56.519Z,64.52
2023-03-17T09:36:56.526Z,60.83
2023-03-17T09:37:57.175Z,63.47
2023-03-17T09:38:56.508Z,61.69
2023-03-17T09:39:56.492Z,63.23
2023-03-17T09:40:56.485Z,61.32
2023-03-17T09:41:56.455Z,61.30
2023-03-17T09:42:56.419Z,68.61
2023-03-17T09:43:56.480Z,64.16
2023-03-17T09:44:56.473Z,62.00
2023-03-17T09:45:56.478Z,60.79
2023-03-17T09:46:56.484Z,65.38
2023-03-17T09:47:56.427Z,60.38
2023-03-17T09:48:56.398Z,61.28
2023-03-17T09:49:56.406Z,63.60
2023-03-17T09:50:56.428Z,67.99
2023-03-17T09:51:56.465Z,62.89
2023-03-17T09:52:57.246Z,63.94
2023-03-17T09:53:56.375Z,64.66
2023-03-17T09:54:56.373Z,65.23
2023-03-17T09:55:56.367Z,64.04
2023-03-17T09:56:56.345Z,66.33
2023-03-17T09:57:56.334Z,66.45
2023-03-17T09:58:56.307Z,67.53
2023-03-17T09:59:56.435Z,61.32
2023-03-17T10:00:57.109Z,58.76
2023-03-17T10:01:56.310Z,60.03
2023-03-17T10:02:56.308Z,62.56
2023-03-17T10:03:56.297Z,69.14
2023-03-17T10:04:56.376Z,63.30
2023-03-17T10:05:56.293Z,62.04
2023-03-17T10:06:57.112Z,65.48
2023-03-17T10:07:56.333Z,66.00
2023-03-17T10:08:56.286Z,64.77
2023-03-17T10:09:56.255Z,68.40
2023-03-17T10:10:56.366Z,66.32
2023-03-17T10:11:56.274Z,62.47
2023-03-17T10:12:56.272Z,63.83
2023-03-17T10:13:56.275Z,65.95
2023-03-17T10:14:56.244Z,65.52
2023-03-17T10:15:56.376Z,65.95
2023-03-17T10:16:56.179Z,64.06
2023-03-17T10:17:56.157Z,67.74
2023-03-17T10:18:56.180Z,64.30
2023-03-17T10:19:56.157Z,63.66
2023-03-17T10:20:56.192Z,61.21
2023-03-17T10:21:56.203Z,64.01
2023-03-17T10:22:56.155Z,63.53
2023-03-17T10:23:56.155Z,65.96
2023-03-17T10:24:56.133Z,65.46
2023-03-17T10:25:56.113Z,69.14
2023-03-17T10:26:56.154Z,62.21
2023-03-17T10:27:56.125Z,62.72
2023-03-17T10:28:56.104Z,63.26
2023-03-17T10:29:56.079Z,65.69
2023-03-17T10:30:56.053Z,66.99
2023-03-17T10:31:58.299Z,66.26
2023-03-17T10:32:57.093Z,68.51
2023-03-17T10:33:56.081Z,64.87
2023-03-17T10:34:56.045Z,65.83
2023-03-17T10:35:56.082Z,64.84
2023-03-17T10:36:56.029Z,65.60
2023-03-17T10:38:11.806Z,66.30
2023-03-17T10:38:58.000Z,61.55
2023-03-17T10:39:56.027Z,68.97
2023-03-17T10:40:56.008Z,65.96
2023-03-17T10:41:55.997Z,68.10
2023-03-17T10:42:56.001Z,63.02
2023-03-17T10:43:55.969Z,67.47
2023-03-17T10:44:55.992Z,66.72
2023-03-17T10:45:56.976Z,64.72
2023-03-17T10:46:56.056Z,64.69
2023-03-17T10:47:55.983Z,63.72
2023-03-17T10:48:55.959Z,64.76
2023-03-17T10:49:55.932Z,66.65
2023-03-17T10:50:55.912Z,65.51
2023-03-17T10:51:55.897Z,65.32
2023-03-17T10:52:55.952Z,64.83
2023-03-17T10:53:55.898Z,64.14
2023-03-17T10:54:55.901Z,64.54
2023-03-17T10:55:55.873Z,63.33
2023-03-17T10:56:57.787Z,56.96
2023-03-17T10:57:55.891Z,65.41
2023-03-17T10:58:55.947Z,62.60
2023-03-17T10:59:56.649Z,62.48
2023-03-17T11:00:55.884Z,64.48
2023-03-17T11:01:55.851Z,63.43
2023-03-17T11:02:55.853Z,64.71
2023-03-17T11:03:56.785Z,64.02
2023-03-17T11:04:55.865Z,66.70
2023-03-17T11:05:55.833Z,62.44
2023-03-17T11:06:55.927Z,63.81
2023-03-17T11:07:55.837Z,67.25
2023-03-17T11:08:55.796Z,68.46
2023-03-17T11:09:55.789Z,66.19
2023-03-17T11:10:55.757Z,65.29
2023-03-17T11:11:56.718Z,68.43
2023-03-17T11:12:55.765Z,62.98
2023-03-17T11:13:56.302Z,67.29
2023-03-17T11:14:55.756Z,63.96
2023-03-17T11:15:55.798Z,62.68
2023-03-17T11:16:55.730Z,60.84
2023-03-17T11:17:55.701Z,62.53
2023-03-17T11:18:55.722Z,67.90
2023-03-17T11:19:55.707Z,64.50
2023-03-17T11:20:55.695Z,66.93
2023-03-17T11:21:55.673Z,65.89
2023-03-17T11:22:55.664Z,66.35
2023-03-17T11:23:56.632Z,62.56
2023-03-17T11:24:55.653Z,66.33
2023-03-17T11:25:55.675Z,63.44
2023-03-17T11:26:55.651Z,62.16
2023-03-17T11:27:56.178Z,66.24
2023-03-17T11:28:55.621Z,63.16
2023-03-17T11:29:55.644Z,67.64
2023-03-17T11:30:55.640Z,64.70
2023-03-17T11:31:55.619Z,68.19
2023-03-17T11:32:55.625Z,62.44
2023-03-17T11:33:55.561Z,64.90
2023-03-17T11:34:55.603Z,67.21
2023-03-17T11:35:55.585Z,66.13
2023-03-17T11:36:57.807Z,65.58
2023-03-17T11:37:56.577Z,65.57
2023-03-17T11:38:55.579Z,65.70
2023-03-17T11:39:55.607Z,68.83
2023-03-17T11:40:55.601Z,63.46
2023-03-17T11:41:55.529Z,67.75
2023-03-17T11:42:56.046Z,64.38
2023-03-17T11:43:55.557Z,66.39
2023-03-17T11:44:55.569Z,65.26
2023-03-17T11:45:55.606Z,67.97
2023-03-17T11:46:55.534Z,65.28
2023-03-17T11:47:56.530Z,64.70
2023-03-17T11:48:55.486Z,63.56
2023-03-17T11:49:55.596Z,64.12
2023-03-17T11:50:55.499Z,65.38
2023-03-17T11:51:55.525Z,67.52
2023-03-17T11:52:55.547Z,66.31
2023-03-17T11:53:55.475Z,66.44
2023-03-17T11:54:57.094Z,70.58
2023-03-17T11:55:56.454Z,62.72
2023-03-17T11:56:55.474Z,69.16
2023-03-17T11:57:55.469Z,62.16
2023-03-17T11:58:55.521Z,64.81
2023-03-17T11:59:55.408Z,66.94
2023-03-17T12:00:55.435Z,63.33
2023-03-17T12:01:55.424Z,65.68
2023-03-17T12:02:55.403Z,67.38
2023-03-17T12:03:55.950Z,66.95
2023-03-17T12:04:55.407Z,71.42
2023-03-17T12:05:55.369Z,69.32
2023-03-17T12:06:56.160Z,66.79
2023-03-17T12:07:56.331Z,57.32
2023-03-17T12:08:55.362Z,70.20
2023-03-17T12:09:56.317Z,63.08
2023-03-17T12:10:55.341Z,61.85
2023-03-17T12:11:55.308Z,67.63
2023-03-17T12:12:55.347Z,66.58
2023-03-17T12:13:55.308Z,63.68
2023-03-17T12:14:55.313Z,68.41
2023-03-17T12:15:55.495Z,65.71
2023-03-17T12:16:55.295Z,67.69
2023-03-17T12:17:55.325Z,64.02
2023-03-17T12:18:55.282Z,67.83
2023-03-17T12:19:55.247Z,67.08
2023-03-17T12:20:55.252Z,64.97
2023-03-17T12:21:55.256Z,69.53
2023-03-17T12:22:56.995Z,67.87
2023-03-17T12:23:57.142Z,65.21
2023-03-17T12:24:55.234Z,70.14
2023-03-17T12:25:55.294Z,66.62
2023-03-17T12:26:55.191Z,67.60
2023-03-17T12:27:55.861Z,64.13
2023-03-17T12:28:56.167Z,66.94
2023-03-17T12:29:56.205Z,67.03
2023-03-17T12:30:55.275Z,64.52
2023-03-17T12:31:55.158Z,70.18
2023-03-17T12:32:55.289Z,61.99
2023-03-17T12:33:55.182Z,62.99
2023-03-17T12:34:57.168Z,69.04
2023-03-17T12:35:56.150Z,68.52
2023-03-17T12:36:55.804Z,66.94
2023-03-17T12:37:55.184Z,65.14
2023-03-17T12:38:55.278Z,62.94
2023-03-17T12:39:55.096Z,68.61
2023-03-17T12:40:55.837Z,68.65
2023-03-17T12:41:55.151Z,62.21
2023-03-17T12:42:56.233Z,66.06
2023-03-17T12:43:55.186Z,70.54
2023-03-17T12:44:55.123Z,67.58
2023-03-17T12:45:55.102Z,70.28
2023-03-17T12:46:55.034Z,66.15
2023-03-17T12:47:55.079Z,64.18
2023-03-17T12:48:55.034Z,66.06
2023-03-17T12:49:56.076Z,63.21
2023-03-17T12:50:55.032Z,60.52
2023-03-17T12:51:55.066Z,67.57
2023-03-17T12:52:55.032Z,64.76
2023-03-17T12:53:55.071Z,61.95
2023-03-17T12:54:54.986Z,68.72
2023-03-17T12:55:54.978Z,68.29
2023-03-17T12:56:55.005Z,64.87
2023-03-17T12:57:55.261Z,67.86
2023-03-17T12:58:56.581Z,67.61
2023-03-17T12:59:55.009Z,68.98
2023-03-17T13:00:54.909Z,64.40
2023-03-17T13:01:54.978Z,63.66
2023-03-17T13:02:54.983Z,63.61
2023-03-17T13:03:54.912Z,68.04
2023-03-17T13:04:54.959Z,66.51
2023-03-17T13:05:54.951Z,68.81
2023-03-17T13:06:54.886Z,62.49
2023-03-17T13:07:54.913Z,67.92
2023-03-17T13:08:54.952Z,68.28